Time;durP1;ratioP1;P1;durP2;ratioP2;P2;SDS_P1;SDS_P2;PMS_P1;PMS_P2;Temp;Humidity;BMP_temperature;BMP_pressure;BME280_temperature;BME280_humidity;BME280_pressure;Samples;Min_cycle;Max_cycle;Signal;HPM_P1;HPM_P2
2022/01/10 00:00:47;;;;;;;;;66.67;53.00;;;;;3.27;71.94;100915.09;5071720;28;45642;-76
2022/01/10 00:03:13;;;;;;;;;70.00;54.33;;;;;3.66;71.13;100981.31;5073055;28;46111;-76
2022/01/10 00:05:38;;;;;;;;;70.67;53.33;;;;;3.61;71.37;100984.78;5071717;28;45423;-76
2022/01/10 00:08:04;;;;;;;;;72.33;50.67;;;;;3.50;71.39;100973.50;5073011;28;45305;-76
2022/01/10 00:10:31;;;;;;;;;71.33;52.33;;;;;3.60;71.95;101009.22;5075650;28;45288;-76
2022/01/10 00:12:57;;;;;;;;;73.00;52.00;;;;;3.57;71.67;101005.75;5070827;28;45470;-74
2022/01/10 00:15:22;;;;;;;;;80.67;58.67;;;;;3.59;71.97;101012.72;5073113;27;45510;-76
2022/01/10 00:17:48;;;;;;;;;62.00;48.33;;;;;3.46;72.18;100997.91;5073183;28;45788;-77
2022/01/10 00:20:16;;;;;;;;;72.67;53.67;;;;;3.36;71.98;100972.63;5071539;28;45363;-77
2022/01/10 00:22:45;;;;;;;;;73.00;55.00;;;;;3.48;71.62;101005.75;5073937;27;45501;-76
2022/01/10 00:25:13;;;;;;;;;69.33;53.33;;;;;3.36;71.60;100989.19;5075212;28;45341;-76
2022/01/10 00:27:39;;;;;;;;;66.33;52.33;;;;;3.35;72.28;100986.56;5072554;28;45577;-76
2022/01/10 00:30:04;;;;;;;;;69.33;48.00;;;;;3.45;72.21;101004.00;5061553;28;45433;-76
2022/01/10 00:32:30;;;;;;;;;63.67;49.67;;;;;3.44;71.58;101004.84;5073094;28;46692;-76
2022/01/10 00:34:55;;;;;;;;;64.33;45.67;;;;;3.45;71.29;101009.25;5073061;28;45281;-76
2022/01/10 00:37:20;;;;;;;;;63.33;51.33;;;;;3.50;72.66;101017.06;5073262;28;45313;-76
2022/01/10 00:39:48;;;;;;;;;66.67;51.33;;;;;3.51;72.72;101017.09;5071653;28;45359;-76
2022/01/10 00:42:13;;;;;;;;;63.33;51.67;;;;;3.53;72.23;101015.34;5071156;28;45409;-76
2022/01/10 00:44:45;;;;;;;;;68.00;53.00;;;;;3.37;71.60;100982.22;5071236;28;45456;-76
2022/01/10 00:47:10;;;;;;;;;64.67;48.67;;;;;3.51;71.52;101017.09;5057724;28;45454;-76
2022/01/10 00:49:35;;;;;;;;;73.67;54.00;;;;;3.56;72.26;101028.44;5075068;28;45301;-76
2022/01/10 00:52:01;;;;;;;;;65.33;51.00;;;;;3.37;72.14;100996.16;5072012;28;45458;-76
2022/01/10 00:54:26;;;;;;;;;68.33;51.00;;;;;3.51;72.36;101011.84;5072261;28;45197;-76
2022/01/10 00:56:51;;;;;;;;;65.33;49.33;;;;;3.46;72.54;101008.34;5073675;28;46005;-76
2022/01/10 00:59:17;;;;;;;;;70.00;53.33;;;;;3.53;72.14;101025.81;5075534;28;45246;-76
2022/01/10 01:01:42;;;;;;;;;69.67;53.33;;;;;3.40;72.14;100992.66;5077102;28;45943;-74
2022/01/10 01:04:07;;;;;;;;;72.00;51.33;;;;;3.59;72.08;101032.78;5076774;27;45537;-76
2022/01/10 01:06:33;;;;;;;;;61.67;49.00;;;;;3.48;72.27;101016.22;5076234;28;45468;-76
2022/01/10 01:09:04;;;;;;;;;72.00;49.33;;;;;3.60;72.82;101051.09;5074068;28;45384;-76
2022/01/10 01:14:23;;;;;;;;;73.33;51.00;;;;;3.54;72.33;101037.16;5070061;27;45593;-76
2022/01/10 01:16:58;;;;;;;;;68.67;50.67;;;;;3.57;71.30;101045.00;5076959;28;45367;-74
2022/01/10 01:20:03;;;;;;;;;71.00;53.00;;;;;3.29;71.97;101010.97;5076863;28;45478;-76
2022/01/10 01:24:55;;;;;;;;;63.33;47.33;;;;;3.31;71.95;101030.16;5075883;27;45468;-76
2022/01/10 01:27:21;;;;;;;;;72.67;49.67;;;;;3.37;72.19;101058.94;5075235;28;45376;-76
2022/01/10 01:29:46;;;;;;;;;50.67;39.00;;;;;3.34;72.36;101039.75;5074286;28;45481;-76
2022/01/10 01:32:11;;;;;;;;;63.67;48.67;;;;;3.38;72.48;101062.44;5075585;28;46283;-76
2022/01/10 01:34:37;;;;;;;;;64.33;46.33;;;;;3.44;72.72;101088.59;5078042;27;45379;-76
2022/01/10 01:37:02;;;;;;;;;61.00;46.67;;;;;3.35;72.05;101080.75;5074193;28;45405;-76
2022/01/10 01:39:30;;;;;;;;;67.00;48.00;;;;;3.32;72.49;101072.88;5053522;28;46802;-76
2022/01/10 01:42:03;;;;;;;;;61.33;47.67;;;;;3.45;71.79;101106.06;5066985;28;45501;-76
2022/01/10 01:44:29;;;;;;;;;60.00;42.00;;;;;3.43;71.42;101107.78;5075463;28;45557;-76
2022/01/10 01:46:54;;;;;;;;;58.00;45.33;;;;;3.26;71.90;101083.34;5076464;28;45578;-76
2022/01/10 01:49:20;;;;;;;;;56.67;45.67;;;;;3.41;72.52;101115.66;5077743;27;45372;-76
2022/01/10 01:51:45;;;;;;;;;67.33;46.33;;;;;3.39;72.41;101121.75;5073797;28;45488;-76
2022/01/10 01:54:11;;;;;;;;;64.67;47.00;;;;;3.37;72.02;101132.19;5074700;27;45510;-74
2022/01/10 01:56:38;;;;;;;;;62.00;51.00;;;;;3.29;71.72;101125.22;5074475;28;45454;-76
2022/01/10 01:59:04;;;;;;;;;62.33;47.00;;;;;3.37;72.15;101142.66;5074903;28;45503;-76
2022/01/10 02:01:30;;;;;;;;;62.67;49.00;;;;;3.27;72.42;101124.34;5075965;28;46135;-76
2022/01/10 02:03:55;;;;;;;;;63.00;46.00;;;;;3.34;71.41;101145.28;5075402;27;46090;-76
2022/01/10 02:06:21;;;;;;;;;65.67;43.67;;;;;3.32;72.09;101154.84;5073515;28;45395;-76
2022/01/10 02:08:46;;;;;;;;;63.00;46.67;;;;;3.24;71.27;101150.50;5072395;28;45308;-76
2022/01/10 02:11:14;;;;;;;;;60.00;47.33;;;;;3.31;72.34;101163.59;5074872;28;45346;-76
2022/01/10 02:13:41;;;;;;;;;63.33;46.00;;;;;3.31;72.07;101170.56;5076421;28;45392;-76
2022/01/10 02:16:09;;;;;;;;;59.33;41.67;;;;;3.32;72.30;101173.16;5074487;27;45758;-76
2022/01/10 02:18:35;;;;;;;;;56.33;47.00;;;;;3.34;72.37;101183.66;5073661;27;45305;-76
2022/01/10 02:21:05;;;;;;;;;55.00;43.00;;;;;3.31;73.29;101173.19;5075070;28;46026;-76
2022/01/10 02:23:31;;;;;;;;;51.33;43.67;;;;;3.34;72.84;101179.28;5074417;27;45518;-76
2022/01/10 02:25:57;;;;;;;;;61.67;41.33;;;;;3.33;72.47;101185.41;5074911;28;45596;-76
2022/01/10 02:28:24;;;;;;;;;54.67;46.00;;;;;3.33;73.54;101179.31;5060352;28;45524;-76
2022/01/10 02:30:56;;;;;;;;;54.67;41.67;;;;;3.30;73.65;101174.06;5074556;27;46643;-76
2022/01/10 02:33:27;;;;;;;;;58.67;43.00;;;;;3.42;72.33;101200.25;5075476;27;45481;-76
2022/01/10 02:36:27;;;;;;;;;61.00;45.33;;;;;3.36;73.18;101195.00;5074268;28;45633;-76
2022/01/10 02:38:49;;;;;;;;;48.33;44.33;;;;;3.45;72.66;101209.84;5061234;28;45497;-76
2022/01/10 02:41:26;;;;;;;;;53.67;43.00;;;;;3.41;72.75;101215.09;5065450;28;46300;-76
2022/01/10 02:43:53;;;;;;;;;57.33;43.00;;;;;3.25;72.78;101191.47;5074775;28;45417;-76
2022/01/10 02:46:19;;;;;;;;;55.33;42.00;;;;;3.40;72.40;101223.78;5076514;28;45458;-76
2022/01/10 02:48:44;;;;;;;;;40.33;38.00;;;;;3.28;72.75;101212.41;5073688;28;45344;-76
2022/01/10 02:51:09;;;;;;;;;57.33;42.67;;;;;3.26;71.93;101209.78;5073546;27;45332;-76
2022/01/10 02:53:35;;;;;;;;;52.33;39.67;;;;;3.36;73.06;101236.88;5074182;28;45428;-76
2022/01/10 02:56:00;;;;;;;;;58.67;42.00;;;;;3.32;72.96;101235.94;5056863;28;45426;-76
2022/01/10 02:58:25;;;;;;;;;51.00;39.00;;;;;2.86;71.76;101159.97;5076400;28;45483;-76
2022/01/10 03:00:51;;;;;;;;;49.67;42.33;;;;;3.21;72.76;101223.72;5072303;28;46422;-76
2022/01/10 03:03:16;;;;;;;;;57.67;42.00;;;;;3.21;72.75;101236.78;5073589;28;45387;-76
2022/01/10 03:05:42;;;;;;;;;58.67;44.67;;;;;3.31;73.68;101247.31;5073114;28;45647;-76
2022/01/10 03:08:07;;;;;;;;;55.33;41.33;;;;;3.17;72.84;101223.69;5074517;28;45379;-76
2022/01/10 03:10:32;;;;;;;;;56.67;42.00;;;;;3.26;72.75;101243.78;5076435;28;46305;-76
2022/01/10 03:13:00;;;;;;;;;57.00;43.00;;;;;3.36;72.13;101266.50;5056987;28;45364;-76
2022/01/10 03:15:26;;;;;;;;;59.00;43.00;;;;;3.34;73.07;101264.75;5072898;28;45423;-76
2022/01/10 03:17:52;;;;;;;;;46.67;41.00;;;;;3.34;72.46;101268.25;5074157;28;45286;-76
2022/01/10 03:20:17;;;;;;;;;62.67;43.00;;;;;3.32;73.11;101267.34;5073341;28;46340;-76
2022/01/10 03:22:43;;;;;;;;;62.33;42.67;;;;;3.30;72.38;101266.50;5056419;28;45433;-76
2022/01/10 03:25:08;;;;;;;;;46.67;42.00;;;;;3.29;72.61;101274.31;5085890;27;45667;-76
2022/01/10 03:27:34;;;;;;;;;51.00;41.33;;;;;3.25;72.48;101275.19;5071823;28;45459;-76
2022/01/10 03:29:59;;;;;;;;;49.33;38.67;;;;;3.24;72.39;101279.53;5074098;28;46029;-76
2022/01/10 03:32:25;;;;;;;;;50.00;39.00;;;;;3.23;72.33;101274.28;5072512;28;45423;-76
2022/01/10 03:34:50;;;;;;;;;54.33;43.67;;;;;3.07;72.80;101250.69;5055667;28;45579;-76
2022/01/10 03:37:16;;;;;;;;;56.33;43.33;;;;;3.06;72.98;101254.19;5076152;27;45291;-76
2022/01/10 03:39:42;;;;;;;;;46.33;42.00;;;;;3.17;73.51;101272.53;5072028;28;45597;-76
2022/01/10 03:42:07;;;;;;;;;50.33;39.00;;;;;3.18;73.29;101275.16;5073282;27;45398;-76
2022/01/10 03:44:33;;;;;;;;;48.33;39.00;;;;;3.23;73.01;101296.09;5074024;28;45430;-76
2022/01/10 03:46:58;;;;;;;;;57.33;40.33;;;;;3.23;73.76;101298.72;5055308;28;45552;-76
2022/01/10 03:49:25;;;;;;;;;57.33;42.00;;;;;3.22;72.80;101302.19;5074233;27;46132;-76
2022/01/10 03:51:51;;;;;;;;;52.67;43.00;;;;;3.17;72.83;101293.44;5071672;28;45504;-76
2022/01/10 03:54:17;;;;;;;;;10.00;3.67;;;;;3.21;72.80;101304.78;5071956;28;45731;-76
2022/01/10 03:56:42;;;;;;;;;57.67;43.33;;;;;3.09;72.31;101293.44;5073207;28;45432;-76
2022/01/10 03:59:08;;;;;;;;;46.33;39.67;;;;;3.05;72.20;101290.78;5071873;28;46125;-76
2022/01/10 04:01:38;;;;;;;;;41.67;32.00;;;;;3.08;72.93;101312.56;5056613;28;45330;-76
2022/01/10 04:04:03;;;;;;;;;51.33;42.00;;;;;2.94;73.23;101291.59;5072832;28;45808;-76
2022/01/10 04:06:29;;;;;;;;;43.33;39.67;;;;;3.10;73.36;101323.94;5053563;28;45671;-73
2022/01/10 04:08:54;;;;;;;;;57.00;40.67;;;;;3.19;73.44;101326.59;5073173;27;45414;-76
2022/01/10 04:11:19;;;;;;;;;54.00;39.00;;;;;3.18;73.05;101322.25;5071756;28;45412;-75
2022/01/10 04:13:45;;;;;;;;;49.67;42.00;;;;;3.17;73.11;101330.06;5074157;28;45836;-75
2022/01/10 04:16:10;;;;;;;;;39.33;34.67;;;;;2.92;73.60;101284.59;5074558;28;45332;-75
2022/01/10 04:18:35;;;;;;;;;57.00;42.00;;;;;3.15;72.48;101324.84;5072871;28;47608;-75
2022/01/10 04:21:01;;;;;;;;;58.00;42.67;;;;;3.13;73.02;101331.78;5063179;28;46100;-75
2022/01/10 04:23:26;;;;;;;;;44.67;41.67;;;;;3.13;72.31;101330.94;5073444;28;45473;-75
2022/01/10 04:25:51;;;;;;;;;41.33;38.33;;;;;3.10;72.23;101341.38;5053927;28;45457;-75
2022/01/10 04:28:17;;;;;;;;;52.67;42.00;;;;;3.10;72.71;101344.00;5074762;28;45658;-75
2022/01/10 04:30:43;;;;;;;;;50.00;42.00;;;;;2.98;72.89;101329.09;5072192;28;45340;-75
2022/01/10 04:33:10;;;;;;;;;54.00;41.33;;;;;3.08;72.79;101359.66;5070990;28;45324;-75
2022/01/10 04:35:35;;;;;;;;;50.00;40.67;;;;;2.95;73.81;101344.75;5077105;28;45367;-75
2022/01/10 04:38:02;;;;;;;;;49.33;42.67;;;;;2.99;73.76;101354.38;5081383;28;46047;-75
2022/01/10 04:40:27;;;;;;;;;58.67;42.33;;;;;3.04;73.49;101360.50;5082514;27;45300;-75
2022/01/10 04:42:53;;;;;;;;;61.00;42.33;;;;;3.04;72.60;101365.75;5071748;28;45644;-76
2022/01/10 04:45:19;;;;;;;;;52.33;42.33;;;;;3.11;72.94;101387.56;5073039;28;45315;-75
2022/01/10 04:47:44;;;;;;;;;57.00;44.00;;;;;2.93;72.50;101362.16;5064549;28;47348;-76
2022/01/10 04:52:35;;;;;;;;;52.33;41.00;;;;;3.06;73.12;101395.41;5074816;28;45620;-76
2022/01/10 04:55:02;;;;;;;;;50.33;42.67;;;;;3.07;73.86;101405.00;5055038;28;45769;-75
2022/01/10 04:57:27;;;;;;;;;45.33;36.67;;;;;2.98;73.86;101401.44;5071933;28;46904;-75
2022/01/10 04:59:53;;;;;;;;;51.67;42.67;;;;;3.08;73.82;101418.94;5055075;28;45479;-75
2022/01/10 05:02:18;;;;;;;;;48.67;38.00;;;;;3.05;73.33;101419.78;5057188;28;45485;-75
2022/01/10 05:04:44;;;;;;;;;58.67;38.33;;;;;3.00;73.73;101411.06;5073417;28;45347;-75
2022/01/10 05:07:09;;;;;;;;;48.00;41.00;;;;;3.11;73.44;101434.66;5071867;28;46059;-75
2022/01/10 05:09:35;;;;;;;;;53.33;40.00;;;;;3.00;72.95;101411.06;5072530;28;45484;-76
2022/01/10 05:12:00;;;;;;;;;53.33;43.33;;;;;3.08;73.29;101438.09;5071002;28;45312;-75
2022/01/10 05:14:26;;;;;;;;;65.00;42.33;;;;;2.96;73.38;101417.09;5073199;28;45428;-75
2022/01/10 05:16:52;;;;;;;;;60.00;45.67;;;;;2.90;73.14;101412.69;5072142;28;45500;-75
2022/01/10 05:19:17;;;;;;;;;63.00;43.67;;;;;3.06;73.20;101445.09;5072620;28;45320;-76
2022/01/10 05:21:43;;;;;;;;;56.33;46.00;;;;;3.01;73.60;101435.44;5070827;28;45381;-75
2022/01/10 05:24:08;;;;;;;;;51.67;43.33;;;;;3.04;73.25;101440.72;5070781;28;45490;-75
2022/01/10 05:26:35;;;;;;;;;48.33;35.00;;;;;2.95;73.60;101431.06;5070474;28;46097;-75
2022/01/10 05:29:02;;;;;;;;;54.67;45.67;;;;;3.11;73.79;101452.94;5072136;27;45374;-75
2022/01/10 05:31:29;;;;;;;;;59.33;46.33;;;;;2.98;73.98;101446.75;5055952;28;45381;-75
2022/01/10 05:33:54;;;;;;;;;49.00;41.00;;;;;3.05;73.57;101466.84;5070540;28;45518;-75
2022/01/10 05:36:20;;;;;;;;;59.00;45.00;;;;;2.90;74.07;101444.06;5070760;28;45441;-75
2022/01/10 05:38:45;;;;;;;;;52.33;44.67;;;;;3.08;73.32;101472.09;5071639;28;45389;-75
2022/01/10 05:41:11;;;;;;;;;52.33;42.67;;;;;3.09;73.58;101496.50;5071667;28;45268;-75
2022/01/10 05:43:36;;;;;;;;;48.67;39.67;;;;;2.91;72.48;101468.47;5054428;28;45537;-75
2022/01/10 05:46:06;;;;;;;;;54.33;41.67;;;;;2.88;72.00;101477.19;5075261;28;48523;-75
2022/01/10 05:48:34;;;;;;;;;49.00;40.67;;;;;2.92;72.17;101504.22;5076069;28;45403;-75
2022/01/10 05:50:59;;;;;;;;;57.33;37.67;;;;;2.90;73.00;101508.56;5074103;28;45395;-76
2022/01/10 05:53:25;;;;;;;;;42.33;33.33;;;;;2.87;72.66;101519.88;5069930;28;45455;-75
2022/01/10 05:55:50;;;;;;;;;49.00;38.67;;;;;2.57;72.87;101477.75;5076483;27;46302;-75
2022/01/10 05:58:16;;;;;;;;;49.33;41.33;;;;;2.80;72.82;101525.03;5074920;28;45280;-75
2022/01/10 06:00:41;;;;;;;;;55.33;40.00;;;;;2.79;73.76;101531.09;5074892;27;45434;-75
2022/01/10 06:03:07;;;;;;;;;56.33;39.33;;;;;2.68;72.94;101518.81;5073530;27;45718;-75
2022/01/10 06:05:33;;;;;;;;;16.67;9.00;;;;;2.66;73.03;101525.75;5069996;27;46058;-75
2022/01/10 06:08:00;;;;;;;;;43.33;35.33;;;;;2.68;71.84;101533.63;5075174;27;45411;-75
2022/01/10 06:10:26;;;;;;;;;37.00;32.00;;;;;2.45;72.63;101507.22;5077466;27;45509;-75
2022/01/10 06:12:53;;;;;;;;;42.33;34.00;;;;;2.63;72.25;101546.63;5072935;28;45617;-75
2022/01/10 06:15:19;;;;;;;;;43.67;33.00;;;;;2.48;73.02;101536.88;5073000;27;46004;-76
2022/01/10 06:17:44;;;;;;;;;51.33;36.00;;;;;2.36;71.17;101528.91;5074747;28;45534;-76
2022/01/10 06:20:10;;;;;;;;;47.33;37.33;;;;;2.52;71.71;101568.28;5075014;27;45310;-76
2022/01/10 06:22:35;;;;;;;;;36.00;31.33;;;;;2.43;72.79;101569.03;5076985;28;45288;-75
2022/01/10 06:25:01;;;;;;;;;38.00;36.00;;;;;2.39;72.89;101567.25;5074692;28;46028;-75
2022/01/10 06:27:27;;;;;;;;;47.00;31.33;;;;;2.45;72.43;101599.56;5072810;28;45553;-75
2022/01/10 06:29:52;;;;;;;;;35.67;31.67;;;;;2.13;72.91;101551.25;5075974;28;45839;-75
2022/01/10 06:32:18;;;;;;;;;40.00;31.00;;;;;2.27;72.81;101579.28;5074942;28;45489;-75
2022/01/10 06:34:43;;;;;;;;;34.67;31.00;;;;;2.23;71.95;101577.47;5075514;28;46405;-75
2022/01/10 06:37:08;;;;;;;;;30.33;24.33;;;;;2.38;72.60;101621.25;5058821;28;45371;-75
2022/01/10 06:39:34;;;;;;;;;46.67;30.00;;;;;2.36;72.67;101628.16;5064559;28;47807;-75
2022/01/10 06:41:59;;;;;;;;;36.33;25.67;;;;;2.16;72.33;101593.94;5074902;28;45563;-75
2022/01/10 06:44:25;;;;;;;;;30.00;24.00;;;;;2.34;73.02;101631.63;5072865;28;45585;-75
2022/01/10 06:46:51;;;;;;;;;37.67;30.00;;;;;2.23;72.34;101624.50;5075306;28;45399;-75
2022/01/10 06:49:16;;;;;;;;;26.67;22.67;;;;;2.05;72.35;101612.06;5076536;28;45475;-75
2022/01/10 06:51:42;;;;;;;;;27.67;21.33;;;;;2.01;72.55;101618.09;5074590;27;45435;-75
2022/01/10 06:54:07;;;;;;;;;27.33;20.00;;;;;2.19;71.75;101656.66;5072365;28;45392;-74
2022/01/10 06:56:32;;;;;;;;;28.00;23.67;;;;;2.09;72.43;101666.94;5074263;28;45432;-75
2022/01/10 06:58:58;;;;;;;;;24.67;18.33;;;;;1.93;72.70;101644.94;5074552;28;45437;-75
2022/01/10 07:01:23;;;;;;;;;25.67;22.00;;;;;1.98;72.25;101657.22;5075347;28;45512;-75
2022/01/10 07:03:52;;;;;;;;;36.33;24.00;;;;;2.02;73.03;101669.44;5072570;28;46104;-76
2022/01/10 07:06:18;;;;;;;;;32.67;20.33;;;;;2.04;73.54;101680.81;5072414;28;45500;-78
2022/01/10 07:08:43;;;;;;;;;26.00;20.33;;;;;2.04;72.96;101675.59;5068579;27;45350;-76
2022/01/10 07:11:09;;;;;;;;;27.00;18.33;;;;;2.02;73.45;101682.50;5074540;28;45519;-76
2022/01/10 07:13:34;;;;;;;;;23.67;20.67;;;;;2.03;72.74;101694.72;5076312;28;45398;-77
2022/01/10 07:15:59;;;;;;;;;18.33;17.00;;;;;1.92;73.90;101682.34;5055456;28;45506;-76
2022/01/10 07:18:25;;;;;;;;;28.00;20.00;;;;;2.00;73.30;101693.78;5072566;28;45568;-76
2022/01/10 07:20:50;;;;;;;;;31.00;21.00;;;;;1.88;73.03;101681.41;5072217;28;45296;-76
2022/01/10 07:23:15;;;;;;;;;73.67;52.33;;;;;1.97;73.67;101706.78;5072530;28;45370;-77
2022/01/10 07:25:41;;;;;;;;;21.00;16.67;;;;;2.06;73.47;101725.22;5074708;28;45324;-76
2022/01/10 07:28:06;;;;;;;;;28.67;22.00;;;;;1.94;73.30;101712.84;5073352;28;45309;-77
2022/01/10 07:30:32;;;;;;;;;28.67;17.67;;;;;1.96;73.28;101718.97;5060174;27;46198;-77
2022/01/10 07:32:57;;;;;;;;;18.33;15.33;;;;;1.76;73.12;101705.56;5067243;28;46141;-77
2022/01/10 07:35:22;;;;;;;;;20.67;17.00;;;;;1.82;73.83;101723.06;5073190;27;45415;-77
2022/01/10 07:37:48;;;;;;;;;26.33;21.33;;;;;1.96;74.43;101754.63;5076110;27;45423;-78
2022/01/10 07:40:13;;;;;;;;;27.33;20.33;;;;;1.98;74.51;101752.94;5068651;28;45477;-81
2022/01/10 07:42:39;;;;;;;;;19.00;9.33;;;;;2.01;74.19;101766.91;5081945;27;46571;-77
2022/01/10 07:45:05;;;;;;;;;24.67;19.67;;;;;1.83;73.80;101742.25;5064305;27;45596;-77
2022/01/10 07:47:32;;;;;;;;;20.00;17.00;;;;;2.05;73.75;101775.69;5078378;27;45321;-77
2022/01/10 07:49:57;;;;;;;;;36.33;23.67;;;;;1.70;73.71;101722.84;5076568;27;45744;-77
2022/01/10 07:52:25;;;;;;;;;20.67;17.00;;;;;1.97;74.60;101791.22;5073298;27;46032;-78
2022/01/10 07:54:50;;;;;;;;;21.33;14.67;;;;;1.91;74.85;101792.81;5075803;27;45507;-77
2022/01/10 07:57:16;;;;;;;;;24.00;18.67;;;;;2.03;74.14;101809.63;5061243;28;45658;-77
2022/01/10 07:59:41;;;;;;;;;23.67;18.67;;;;;1.81;75.06;101768.28;5080960;27;45522;-77
2022/01/10 08:02:07;;;;;;;;;20.00;15.00;;;;;2.08;74.76;101814.03;5076907;27;45515;-77
2022/01/10 08:04:33;;;;;;;;;29.33;17.00;;;;;2.11;74.76;101833.22;5074717;27;45490;-77
2022/01/10 08:06:58;;;;;;;;;16.33;16.00;;;;;1.92;74.04;101792.00;5080590;27;45748;-77
2022/01/10 08:09:23;;;;;;;;;24.67;17.67;;;;;2.14;74.47;101837.63;5067984;27;45563;-77
2022/01/10 08:11:49;;;;;;;;;26.00;16.00;;;;;1.99;74.83;101812.13;5074487;27;45888;-78
2022/01/10 08:14:14;;;;;;;;;24.67;17.00;;;;;1.93;74.32;101814.63;5075255;27;45564;-79
2022/01/10 08:16:40;;;;;;;;;24.67;16.67;;;;;2.02;74.52;101835.69;5054858;28;45560;-79
2022/01/10 08:19:06;;;;;;;;;23.67;19.33;;;;;1.98;75.03;101821.69;5070361;27;45389;-77
2022/01/10 08:21:31;;;;;;;;;21.00;16.00;;;;;1.96;75.01;101820.78;5073180;27;45504;-79
2022/01/10 08:23:58;;;;;;;;;24.00;19.67;;;;;2.17;74.88;101864.69;5067665;27;45884;-78
2022/01/10 08:26:23;;;;;;;;;21.00;13.67;;;;;2.08;75.67;101843.63;5079005;27;45802;-78
2022/01/10 08:28:49;;;;;;;;;23.67;17.00;;;;;2.24;75.50;101870.91;5078794;27;45486;-79
2022/01/10 08:31:15;;;;;;;;;21.33;19.00;;;;;2.28;75.38;101873.59;5075370;27;45529;-78
2022/01/10 08:33:41;;;;;;;;;23.67;16.33;;;;;2.33;76.27;101871.06;5078029;27;45662;-79
2022/01/10 08:36:07;;;;;;;;;28.33;17.00;;;;;2.34;75.85;101870.22;5080914;27;45410;-78
2022/01/10 08:38:33;;;;;;;;;31.00;18.33;;;;;2.36;76.36;101876.34;5074250;27;45452;-79
2022/01/10 08:40:58;;;;;;;;;23.33;18.00;;;;;2.35;76.08;101868.47;5081951;27;45512;-78
2022/01/10 08:43:24;;;;;;;;;16.67;14.33;;;;;2.22;76.70;101841.28;5055550;28;45415;-79
2022/01/10 08:45:49;;;;;;;;;20.00;13.00;;;;;2.36;75.70;101857.19;5072460;27;46167;-79
2022/01/10 08:48:15;;;;;;;;;18.67;14.67;;;;;2.43;76.12;101872.97;5072138;27;45502;-79
2022/01/10 08:50:40;;;;;;;;;23.00;14.67;;;;;2.62;76.44;101902.94;5076810;27;46767;-79
2022/01/10 08:53:08;;;;;;;;;20.67;14.67;;;;;2.47;76.69;101866.06;5080652;27;45218;-78
2022/01/10 08:55:33;;;;;;;;;19.33;17.00;;;;;2.58;76.40;101887.16;5060978;28;45367;-76
2022/01/10 08:57:59;;;;;;;;;18.50;13.50;;;;;2.74;76.66;101917.94;5072235;27;45652;-77
2022/01/10 09:00:25;;;;;;;;;23.33;16.33;;;;;2.60;76.38;101882.84;5078599;27;46430;-78
2022/01/10 09:02:51;;;;;;;;;19.33;14.67;;;;;2.67;76.86;101898.66;5067316;27;45507;-78
2022/01/10 09:05:16;;;;;;;;;18.33;14.67;;;;;2.80;77.08;101914.56;5073710;27;45519;-78
2022/01/10 09:07:41;;;;;;;;;20.33;18.33;;;;;2.91;77.17;101929.56;5083876;27;45419;-78
2022/01/10 09:10:07;;;;;;;;;22.33;20.33;;;;;2.60;76.82;101862.81;5071730;27;46674;-78
2022/01/10 09:12:33;;;;;;;;;30.33;20.00;;;;;2.83;77.42;101907.63;5078094;27;45511;-78
2022/01/10 09:14:58;;;;;;;;;23.33;17.00;;;;;3.01;76.42;101933.19;5083234;27;45386;-77
2022/01/10 09:17:24;;;;;;;;;21.25;15.75;;;;;2.96;77.00;101924.41;5079539;27;45567;-78
2022/01/10 09:19:49;;;;;;;;;31.00;20.67;;;;;3.02;77.11;101940.19;5080026;27;45482;-78
2022/01/10 09:22:15;;;;;;;;;24.67;18.67;;;;;3.10;76.49;101956.88;5083192;27;45475;-78
2022/01/10 09:24:40;;;;;;;;;29.67;17.67;;;;;3.03;76.83;101936.72;5072851;27;45514;-78
2022/01/10 09:27:06;;;;;;;;;17.00;13.25;;;;;3.17;77.10;101950.00;5071577;27;45467;-78
2022/01/10 09:29:31;;;;;;;;;19.67;18.00;;;;;2.91;76.98;101912.97;5065398;27;45946;-78
2022/01/10 09:31:57;;;;;;;;;27.00;16.00;;;;;3.25;77.45;101974.56;5080707;27;45331;-77
2022/01/10 09:34:22;;;;;;;;;27.75;17.50;;;;;3.11;77.97;101939.44;5069066;27;45962;-78
2022/01/10 09:36:48;;;;;;;;;25.00;20.67;;;;;3.28;77.31;101968.50;5086543;27;45302;-78
2022/01/10 09:39:13;;;;;;;;;30.00;19.67;;;;;3.37;77.32;101981.72;5074845;27;45896;-78
2022/01/10 09:41:39;;;;;;;;;25.75;20.75;;;;;3.27;77.08;101966.75;5071536;27;45868;-78
2022/01/10 09:44:06;;;;;;;;;30.00;18.25;;;;;3.21;77.34;101946.59;5081446;27;45462;-78
2022/01/10 09:46:33;;;;;;;;;32.00;23.25;;;;;3.50;77.49;101988.91;5076800;27;45649;-78
2022/01/10 09:49:00;;;;;;;;;21.50;15.00;;;;;3.42;77.48;101982.66;5076522;27;45414;-77
2022/01/10 09:51:27;;;;;;;;;22.67;14.00;;;;;3.43;77.86;101971.34;5084067;27;45305;-77
2022/01/10 09:53:54;;;;;;;;;24.75;18.25;;;;;3.63;78.30;101998.69;5075418;27;45519;-76
2022/01/10 09:56:20;;;;;;;;;22.50;16.50;;;;;3.53;77.22;101977.56;5075898;27;45420;-76
2022/01/10 09:58:46;;;;;;;;;19.75;17.75;;;;;3.52;77.26;101968.84;5078156;27;46126;-78
2022/01/10 10:01:14;;;;;;;;;27.67;18.33;;;;;3.66;77.05;101991.75;5081870;27;45504;-77
2022/01/10 10:03:44;;;;;;;;;19.00;16.00;;;;;3.74;78.27;101997.97;5062575;27;45511;-78
2022/01/10 10:06:09;;;;;;;;;32.00;23.00;;;;;3.74;77.59;102005.81;5053619;28;45554;-78
2022/01/10 10:08:38;;;;;;;;;28.25;19.25;;;;;3.61;77.43;101986.44;5064487;28;46976;-78
2022/01/10 10:11:07;;;;;;;;;19.50;15.50;;;;;3.63;77.54;101989.94;5078942;27;45581;-78
2022/01/10 10:13:42;;;;;;;;;18.25;13.75;;;;;3.60;77.59;101988.16;5080259;27;45222;-78
2022/01/10 10:16:13;;;;;;;;;31.75;20.00;;;;;3.64;78.00;101994.31;5083416;27;45477;-77
2022/01/10 10:18:40;;;;;;;;;30.00;23.00;;;;;3.87;77.74;102026.94;5076868;27;46165;-77
2022/01/10 10:21:11;;;;;;;;;31.75;22.50;;;;;3.79;77.37;102011.97;5074323;27;45335;-75
2022/01/10 10:23:40;;;;;;;;;32.25;23.75;;;;;3.84;77.93;102026.91;5072968;27;45449;-76
2022/01/10 10:26:06;;;;;;;;;25.00;16.25;;;;;3.92;77.93;102029.66;5059053;28;45551;-76
2022/01/10 10:28:35;;;;;;;;;28.75;23.00;;;;;3.95;77.90;102034.03;5075792;27;46102;-75
2022/01/10 10:31:01;;;;;;;;;54.67;36.00;;;;;3.73;77.59;102001.44;5072467;27;45517;-76
2022/01/10 10:33:27;;;;;;;;;33.00;26.00;;;;;3.94;76.89;102046.28;5072581;28;45555;-76
2022/01/10 10:35:58;;;;;;;;;35.33;28.00;;;;;3.89;77.53;102031.34;5072392;28;45372;-75
2022/01/10 10:38:27;;;;;;;;;52.33;31.67;;;;;4.02;77.63;102044.59;5073020;27;46206;-76
2022/01/10 10:40:54;;;;;;;;;30.00;24.75;;;;;3.99;77.78;102035.84;5074937;27;45441;-76
2022/01/10 10:43:19;;;;;;;;;29.50;23.00;;;;;4.08;77.79;102052.56;5075475;27;45398;-76
2022/01/10 10:45:47;;;;;;;;;41.67;24.33;;;;;4.02;77.98;102035.88;5079456;28;45353;-76
2022/01/10 10:48:15;;;;;;;;;27.25;21.75;;;;;4.15;77.54;102055.25;5075272;28;46201;-75
2022/01/10 10:50:43;;;;;;;;;43.50;24.50;;;;;4.00;77.64;102038.50;5081398;28;45442;-77
2022/01/10 10:53:10;;;;;;;;;39.50;27.75;;;;;4.18;77.29;102069.28;5078673;27;45495;-76
2022/01/10 10:55:42;;;;;;;;;28.75;24.00;;;;;4.10;77.81;102052.59;5076680;27;45289;-76
2022/01/10 10:58:09;;;;;;;;;36.50;27.00;;;;;4.26;78.18;102078.13;5074392;28;46839;-76
2022/01/10 11:00:35;;;;;;;;;31.75;22.00;;;;;4.28;77.05;102079.03;5072238;27;45415;-76
2022/01/10 11:03:00;;;;;;;;;29.25;23.25;;;;;4.16;77.09;102059.66;5072258;28;45349;-76
2022/01/10 11:05:26;;;;;;;;;35.50;31.50;;;;;4.30;78.07;102079.06;5072297;27;45384;-76
2022/01/10 11:07:52;;;;;;;;;35.50;20.00;;;;;4.32;77.44;102079.94;5074443;27;46524;-76
2022/01/10 11:10:17;;;;;;;;;28.00;20.00;;;;;4.27;77.57;102076.41;5073438;27;45277;-75
2022/01/10 11:12:50;;;;;;;;;30.25;20.50;;;;;4.35;77.09;102079.97;5071684;27;45376;-76
2022/01/10 11:15:16;;;;;;;;;27.75;24.00;;;;;4.30;77.17;102081.69;5071802;28;45462;-77
2022/01/10 11:17:42;;;;;;;;;26.25;15.75;;;;;4.29;77.88;102077.28;5064660;27;45552;-77
2022/01/10 11:20:08;;;;;;;;;41.50;31.25;;;;;4.38;77.80;102090.50;5084886;27;48040;-76